CFG29SA EPKK-LOWI
Flight info
| Callsign | CFG29SA |
|---|---|
| Flight time | 1h 1m |
| Altitude | 38000 |
| Route | BABKO DCT VADEX DCT TOVKA DCT BARUG DCT VATET DCT RASTA DCT NANIT |
| Aircraft | A320/M-SDE3FGHIRWY/LB1 |
Departure
| Time | 2026-04-30 19:22 |
|---|---|
| Airport | Kraków John Paul II International Airport (EPKK) |
Arrival
| Time | 2026-04-30 20:23 |
|---|---|
| Airport | Innsbruck Airport (LOWI) |
| Time | Latitude | Longitude | Altitude | Speed | Heading |
|---|---|---|---|---|---|
| 2026-04-30 18:59 | 50.07596 | 19.80230 | 800 ft | 0 kts | 347° |
| 2026-04-30 19:18 | 50.07642 | 19.80233 | 800 ft | 9 kts | 42° |
| 2026-04-30 19:19 | 50.07660 | 19.80329 | 800 ft | 9 kts | 78° |
| 2026-04-30 19:19 | 50.07703 | 19.80377 | 800 ft | 10 kts | 359° |
| 2026-04-30 19:19 | 50.07946 | 19.80302 | 800 ft | 22 kts | 347° |
| 2026-04-30 19:20 | 50.08014 | 19.80173 | 800 ft | 16 kts | 251° |
| 2026-04-30 19:20 | 50.07992 | 19.80068 | 801 ft | 0 kts | 258° |
| 2026-04-30 19:21 | 50.07873 | 19.79200 | 801 ft | 110 kts | 258° |
| 2026-04-30 19:22 | 50.07414 | 19.76019 | 1489 ft | 163 kts | 259° |
| 2026-04-30 19:22 | 50.06664 | 19.70485 | 3246 ft | 201 kts | 261° |
| 2026-04-30 19:23 | 50.04579 | 19.64015 | 5090 ft | 262 kts | 205° |
| 2026-04-30 19:24 | 50.00798 | 19.63956 | 6723 ft | 283 kts | 180° |
| 2026-04-30 19:24 | 49.98843 | 19.63429 | 7615 ft | 289 kts | 194° |
| 2026-04-30 19:24 | 49.94920 | 19.61560 | 9428 ft | 300 kts | 197° |
| 2026-04-30 19:25 | 49.88560 | 19.58537 | 11243 ft | 345 kts | 194° |
| 2026-04-30 19:26 | 49.83900 | 19.56523 | 12748 ft | 358 kts | 193° |
| 2026-04-30 19:26 | 49.79014 | 19.54469 | 14272 ft | 369 kts | 193° |
| 2026-04-30 19:26 | 49.76517 | 19.53422 | 14975 ft | 374 kts | 193° |
| 2026-04-30 19:27 | 49.71425 | 19.51282 | 16376 ft | 384 kts | 193° |
| 2026-04-30 19:27 | 49.66218 | 19.49089 | 17791 ft | 392 kts | 193° |
| 2026-04-30 19:28 | 49.63599 | 19.47806 | 18487 ft | 398 kts | 201° |
| 2026-04-30 19:28 | 49.58892 | 19.43179 | 19627 ft | 408 kts | 224° |
| 2026-04-30 19:29 | 49.54947 | 19.36769 | 20772 ft | 417 kts | 228° |
| 2026-04-30 19:29 | 49.52949 | 19.33493 | 21343 ft | 422 kts | 228° |
| 2026-04-30 19:30 | 49.46808 | 19.23497 | 23004 ft | 436 kts | 227° |
| 2026-04-30 19:30 | 49.42580 | 19.16655 | 24073 ft | 446 kts | 227° |
| 2026-04-30 19:31 | 49.38273 | 19.09695 | 24978 ft | 454 kts | 227° |
| 2026-04-30 19:31 | 49.36085 | 19.06160 | 25427 ft | 458 kts | 227° |
| 2026-04-30 19:31 | 49.31647 | 18.99010 | 26194 ft | 469 kts | 227° |
| 2026-04-30 19:32 | 49.29388 | 18.95380 | 26586 ft | 472 kts | 226° |
| 2026-04-30 19:32 | 49.27110 | 18.91730 | 27032 ft | 475 kts | 227° |
| 2026-04-30 19:32 | 49.24869 | 18.87981 | 27428 ft | 478 kts | 232° |
| 2026-04-30 19:32 | 49.22866 | 18.83909 | 27824 ft | 481 kts | 235° |
| 2026-04-30 19:33 | 49.20874 | 18.79772 | 28214 ft | 485 kts | 235° |
| 2026-04-30 19:33 | 49.18863 | 18.75608 | 28599 ft | 488 kts | 235° |
| 2026-04-30 19:33 | 49.16834 | 18.71422 | 28984 ft | 492 kts | 235° |
| 2026-04-30 19:33 | 49.14791 | 18.67220 | 29343 ft | 495 kts | 235° |
| 2026-04-30 19:34 | 49.12727 | 18.62985 | 29724 ft | 498 kts | 235° |
| 2026-04-30 19:34 | 49.10651 | 18.58737 | 30150 ft | 500 kts | 235° |
| 2026-04-30 19:34 | 49.06473 | 18.50196 | 30833 ft | 505 kts | 235° |
| 2026-04-30 19:35 | 49.04370 | 18.45901 | 31150 ft | 506 kts | 235° |
| 2026-04-30 19:35 | 49.02256 | 18.41595 | 31463 ft | 508 kts | 235° |
| 2026-04-30 19:35 | 49.00131 | 18.37277 | 31769 ft | 510 kts | 235° |
| 2026-04-30 19:35 | 48.98003 | 18.32956 | 32076 ft | 511 kts | 235° |
| 2026-04-30 19:36 | 48.95869 | 18.28626 | 32440 ft | 511 kts | 234° |
| 2026-04-30 19:36 | 48.93737 | 18.24309 | 32839 ft | 510 kts | 234° |
| 2026-04-30 19:36 | 48.89488 | 18.15730 | 33735 ft | 506 kts | 234° |
| 2026-04-30 19:37 | 48.87371 | 18.11473 | 34158 ft | 504 kts | 234° |
| 2026-04-30 19:37 | 48.85261 | 18.07231 | 34545 ft | 503 kts | 234° |
| 2026-04-30 19:37 | 48.83157 | 18.03004 | 34901 ft | 501 kts | 235° |
| 2026-04-30 19:37 | 48.81058 | 17.98788 | 35277 ft | 499 kts | 234° |
| 2026-04-30 19:38 | 48.78970 | 17.94603 | 35645 ft | 497 kts | 234° |
| 2026-04-30 19:38 | 48.76886 | 17.90438 | 35999 ft | 494 kts | 234° |
| 2026-04-30 19:38 | 48.74813 | 17.86299 | 36339 ft | 492 kts | 234° |
| 2026-04-30 19:38 | 48.72747 | 17.82177 | 36669 ft | 491 kts | 234° |
| 2026-04-30 19:39 | 48.70681 | 17.78066 | 36983 ft | 489 kts | 234° |
| 2026-04-30 19:39 | 48.68625 | 17.73987 | 37306 ft | 487 kts | 234° |
| 2026-04-30 19:39 | 48.66569 | 17.69911 | 37611 ft | 486 kts | 234° |
| 2026-04-30 19:39 | 48.64522 | 17.65863 | 37910 ft | 484 kts | 234° |
| 2026-04-30 19:40 | 48.62478 | 17.61820 | 38204 ft | 483 kts | 234° |
| 2026-04-30 19:40 | 48.60437 | 17.57792 | 38353 ft | 483 kts | 234° |
| 2026-04-30 19:40 | 48.56373 | 17.49783 | 38382 ft | 481 kts | 234° |
| 2026-04-30 19:41 | 48.52301 | 17.41774 | 38383 ft | 480 kts | 234° |
| 2026-04-30 19:41 | 48.48226 | 17.33790 | 38387 ft | 481 kts | 234° |
| 2026-04-30 19:42 | 48.44339 | 17.26189 | 38382 ft | 481 kts | 234° |
| 2026-04-30 19:42 | 48.40321 | 17.18367 | 38387 ft | 479 kts | 234° |
| 2026-04-30 19:43 | 48.36354 | 17.10672 | 38389 ft | 479 kts | 234° |
| 2026-04-30 19:44 | 48.30231 | 16.98835 | 38394 ft | 479 kts | 234° |
| 2026-04-30 19:44 | 48.26795 | 16.91005 | 38390 ft | 474 kts | 248° |
| 2026-04-30 19:45 | 48.24604 | 16.82351 | 38408 ft | 470 kts | 254° |
| 2026-04-30 19:45 | 48.22896 | 16.74906 | 38413 ft | 468 kts | 259° |
| 2026-04-30 19:46 | 48.21283 | 16.66305 | 38411 ft | 468 kts | 253° |
| 2026-04-30 19:46 | 48.20002 | 16.61106 | 38415 ft | 469 kts | 249° |
| 2026-04-30 19:46 | 48.19032 | 16.58047 | 38185 ft | 469 kts | 227° |
| 2026-04-30 19:47 | 48.17032 | 16.55471 | 37878 ft | 461 kts | 212° |
| 2026-04-30 19:47 | 48.15454 | 16.53526 | 38804 ft | 430 kts | 228° |
| 2026-04-30 19:47 | 48.13430 | 16.48930 | 38996 ft | 429 kts | 252° |
| 2026-04-30 19:47 | 48.12941 | 16.46163 | 38559 ft | 424 kts | 272° |
| 2026-04-30 19:48 | 48.12946 | 16.40733 | 38405 ft | 428 kts | 276° |
| 2026-04-30 19:48 | 48.12973 | 16.33833 | 38397 ft | 441 kts | 267° |
| 2026-04-30 19:48 | 48.12360 | 16.29608 | 38395 ft | 452 kts | 253° |
| 2026-04-30 19:49 | 48.11239 | 16.25172 | 38393 ft | 459 kts | 252° |
| 2026-04-30 19:49 | 48.09143 | 16.16638 | 38401 ft | 467 kts | 252° |
| 2026-04-30 19:50 | 48.08477 | 16.10686 | 38114 ft | 452 kts | 273° |
| 2026-04-30 19:50 | 48.08103 | 16.06001 | 38176 ft | 462 kts | 258° |
| 2026-04-30 19:50 | 48.06995 | 16.01456 | 38179 ft | 469 kts | 248° |
| 2026-04-30 19:51 | 48.05522 | 15.97129 | 38325 ft | 471 kts | 244° |
| 2026-04-30 19:51 | 48.03962 | 15.92806 | 38404 ft | 473 kts | 245° |
| 2026-04-30 19:51 | 48.01211 | 15.83905 | 38407 ft | 471 kts | 251° |
| 2026-04-30 19:52 | 47.99043 | 15.74769 | 38420 ft | 469 kts | 255° |
| 2026-04-30 19:52 | 47.96990 | 15.65469 | 38415 ft | 468 kts | 254° |
| 2026-04-30 19:53 | 47.94840 | 15.56364 | 38410 ft | 469 kts | 253° |
| 2026-04-30 19:53 | 47.92580 | 15.47251 | 38409 ft | 469 kts | 252° |
| 2026-04-30 19:54 | 47.90312 | 15.38128 | 38380 ft | 469 kts | 253° |
| 2026-04-30 19:54 | 47.88138 | 15.28962 | 38389 ft | 469 kts | 255° |
| 2026-04-30 19:55 | 47.86165 | 15.19706 | 38410 ft | 469 kts | 256° |
| 2026-04-30 19:55 | 47.84216 | 15.10432 | 38417 ft | 469 kts | 256° |
| 2026-04-30 19:56 | 47.82209 | 15.01193 | 38420 ft | 469 kts | 255° |
| 2026-04-30 19:56 | 47.80156 | 14.91976 | 38416 ft | 469 kts | 255° |
| 2026-04-30 19:57 | 47.78094 | 14.82760 | 38385 ft | 470 kts | 255° |
| 2026-04-30 19:57 | 47.76038 | 14.73540 | 38392 ft | 472 kts | 255° |
| 2026-04-30 19:58 | 47.73969 | 14.64288 | 38402 ft | 472 kts | 255° |
| 2026-04-30 19:58 | 47.71895 | 14.55029 | 38399 ft | 472 kts | 255° |
| 2026-04-30 19:59 | 47.69812 | 14.45795 | 38416 ft | 471 kts | 255° |
| 2026-04-30 20:00 | 47.66660 | 14.31963 | 38184 ft | 474 kts | 255° |
| 2026-04-30 20:00 | 47.65614 | 14.27370 | 37424 ft | 478 kts | 255° |
| 2026-04-30 20:00 | 47.64553 | 14.22704 | 36763 ft | 477 kts | 255° |
| 2026-04-30 20:00 | 47.63492 | 14.18050 | 36165 ft | 476 kts | 256° |
| 2026-04-30 20:01 | 47.61355 | 14.08747 | 35059 ft | 471 kts | 256° |
| 2026-04-30 20:01 | 47.60302 | 14.04162 | 34518 ft | 469 kts | 258° |
| 2026-04-30 20:01 | 47.59501 | 13.99584 | 33935 ft | 464 kts | 262° |
| 2026-04-30 20:02 | 47.58024 | 13.90317 | 32736 ft | 460 kts | 262° |
| 2026-04-30 20:02 | 47.57289 | 13.85724 | 32221 ft | 457 kts | 262° |
| 2026-04-30 20:03 | 47.55828 | 13.76616 | 31213 ft | 453 kts | 262° |
| 2026-04-30 20:03 | 47.55098 | 13.72087 | 30723 ft | 452 kts | 262° |
| 2026-04-30 20:03 | 47.54366 | 13.67570 | 30234 ft | 450 kts | 262° |
| 2026-04-30 20:03 | 47.53636 | 13.63078 | 29781 ft | 448 kts | 262° |
| 2026-04-30 20:04 | 47.52909 | 13.58622 | 29325 ft | 445 kts | 262° |
| 2026-04-30 20:04 | 47.52182 | 13.54190 | 28868 ft | 442 kts | 262° |
| 2026-04-30 20:04 | 47.51460 | 13.49784 | 28432 ft | 439 kts | 261° |
| 2026-04-30 20:05 | 47.50030 | 13.41098 | 27523 ft | 431 kts | 262° |
| 2026-04-30 20:05 | 47.49415 | 13.36806 | 27087 ft | 423 kts | 268° |
| 2026-04-30 20:05 | 47.48613 | 13.28205 | 26267 ft | 416 kts | 268° |
| 2026-04-30 20:06 | 47.48213 | 13.24046 | 25839 ft | 413 kts | 268° |
| 2026-04-30 20:06 | 47.47808 | 13.19860 | 25363 ft | 411 kts | 268° |
| 2026-04-30 20:06 | 47.47406 | 13.15700 | 24991 ft | 407 kts | 268° |
| 2026-04-30 20:06 | 47.47007 | 13.11575 | 24609 ft | 404 kts | 268° |
| 2026-04-30 20:07 | 47.46612 | 13.07493 | 24247 ft | 400 kts | 268° |
| 2026-04-30 20:07 | 47.46219 | 13.03440 | 23886 ft | 397 kts | 267° |
| 2026-04-30 20:07 | 47.45433 | 12.95442 | 23033 ft | 389 kts | 267° |
| 2026-04-30 20:08 | 47.45043 | 12.91513 | 22515 ft | 385 kts | 267° |
| 2026-04-30 20:08 | 47.44657 | 12.87613 | 22036 ft | 382 kts | 266° |
| 2026-04-30 20:08 | 47.44275 | 12.83756 | 21453 ft | 377 kts | 267° |
| 2026-04-30 20:08 | 47.43899 | 12.79953 | 20744 ft | 372 kts | 267° |
| 2026-04-30 20:09 | 47.43529 | 12.76194 | 20079 ft | 368 kts | 266° |
| 2026-04-30 20:09 | 47.43161 | 12.72480 | 19429 ft | 363 kts | 266° |
| 2026-04-30 20:09 | 47.42426 | 12.65186 | 18090 ft | 354 kts | 266° |
| 2026-04-30 20:10 | 47.41700 | 12.58088 | 16721 ft | 345 kts | 265° |
| 2026-04-30 20:10 | 47.41346 | 12.54613 | 16046 ft | 340 kts | 265° |
| 2026-04-30 20:10 | 47.40997 | 12.51177 | 15413 ft | 337 kts | 265° |
| 2026-04-30 20:11 | 47.40311 | 12.44439 | 14158 ft | 328 kts | 264° |
| 2026-04-30 20:11 | 47.39971 | 12.41135 | 13487 ft | 324 kts | 264° |
| 2026-04-30 20:11 | 47.39633 | 12.37871 | 12860 ft | 319 kts | 263° |
| 2026-04-30 20:12 | 47.39599 | 12.31508 | 11552 ft | 304 kts | 281° |
| 2026-04-30 20:12 | 47.39903 | 12.28426 | 10931 ft | 301 kts | 280° |
| 2026-04-30 20:12 | 47.40193 | 12.25386 | 10313 ft | 297 kts | 279° |
| 2026-04-30 20:13 | 47.40473 | 12.22379 | 9687 ft | 294 kts | 279° |
| 2026-04-30 20:13 | 47.40747 | 12.19420 | 9514 ft | 292 kts | 279° |
| 2026-04-30 20:13 | 47.41023 | 12.16443 | 9525 ft | 293 kts | 279° |
| 2026-04-30 20:13 | 47.41302 | 12.13461 | 9525 ft | 293 kts | 279° |
| 2026-04-30 20:14 | 47.41579 | 12.10479 | 9526 ft | 294 kts | 279° |
| 2026-04-30 20:14 | 47.41855 | 12.07483 | 9532 ft | 295 kts | 279° |
| 2026-04-30 20:14 | 47.42132 | 12.04489 | 9526 ft | 294 kts | 279° |
| 2026-04-30 20:14 | 47.42408 | 12.01505 | 9523 ft | 294 kts | 279° |
| 2026-04-30 20:15 | 47.42561 | 11.98501 | 9514 ft | 294 kts | 267° |
| 2026-04-30 20:15 | 47.42125 | 11.95549 | 9517 ft | 296 kts | 248° |
| 2026-04-30 20:15 | 47.41103 | 11.92939 | 9516 ft | 294 kts | 230° |
| 2026-04-30 20:15 | 47.39642 | 11.90963 | 9512 ft | 276 kts | 212° |
| 2026-04-30 20:16 | 47.38054 | 11.89559 | 9514 ft | 260 kts | 210° |
| 2026-04-30 20:16 | 47.36542 | 11.88232 | 9513 ft | 244 kts | 210° |
| 2026-04-30 20:16 | 47.35167 | 11.86888 | 9503 ft | 239 kts | 220° |
| 2026-04-30 20:16 | 47.33987 | 11.85130 | 9504 ft | 238 kts | 232° |
| 2026-04-30 20:17 | 47.33110 | 11.83106 | 9504 ft | 238 kts | 244° |
| 2026-04-30 20:17 | 47.32450 | 11.80889 | 9479 ft | 230 kts | 250° |
| 2026-04-30 20:17 | 47.31986 | 11.78635 | 9193 ft | 229 kts | 258° |
| 2026-04-30 20:17 | 47.31659 | 11.76359 | 8820 ft | 232 kts | 259° |
| 2026-04-30 20:18 | 47.31346 | 11.74013 | 8426 ft | 236 kts | 259° |
| 2026-04-30 20:18 | 47.31024 | 11.71630 | 8036 ft | 239 kts | 259° |
| 2026-04-30 20:18 | 47.30696 | 11.69212 | 7622 ft | 243 kts | 259° |
| 2026-04-30 20:18 | 47.30362 | 11.66756 | 7252 ft | 244 kts | 259° |
| 2026-04-30 20:19 | 47.30037 | 11.64374 | 6836 ft | 232 kts | 258° |
| 2026-04-30 20:19 | 47.29826 | 11.62831 | 6581 ft | 223 kts | 258° |
| 2026-04-30 20:19 | 47.29432 | 11.59949 | 6090 ft | 208 kts | 258° |
| 2026-04-30 20:19 | 47.29152 | 11.57910 | 5742 ft | 197 kts | 258° |
| 2026-04-30 20:20 | 47.28892 | 11.56013 | 5405 ft | 186 kts | 258° |
| 2026-04-30 20:20 | 47.28640 | 11.54179 | 5091 ft | 176 kts | 258° |
| 2026-04-30 20:20 | 47.28402 | 11.52451 | 4765 ft | 170 kts | 258° |
| 2026-04-30 20:20 | 47.28178 | 11.50817 | 4497 ft | 159 kts | 258° |
| 2026-04-30 20:21 | 47.27960 | 11.49238 | 4248 ft | 153 kts | 258° |
| 2026-04-30 20:21 | 47.27755 | 11.47753 | 4018 ft | 147 kts | 258° |
| 2026-04-30 20:21 | 47.27554 | 11.46296 | 3786 ft | 144 kts | 258° |
| 2026-04-30 20:21 | 47.27349 | 11.44846 | 3548 ft | 142 kts | 258° |
| 2026-04-30 20:22 | 47.27145 | 11.43445 | 3254 ft | 142 kts | 258° |
| 2026-04-30 20:22 | 47.26946 | 11.42023 | 2963 ft | 140 kts | 259° |
| 2026-04-30 20:22 | 47.26747 | 11.40625 | 2684 ft | 139 kts | 258° |
| 2026-04-30 20:22 | 47.26556 | 11.39223 | 2414 ft | 140 kts | 261° |
| 2026-04-30 20:23 | 47.26388 | 11.37813 | 2200 ft | 140 kts | 263° |
| 2026-04-30 20:23 | 47.26237 | 11.36408 | 2035 ft | 139 kts | 261° |
| 2026-04-30 20:23 | 47.26082 | 11.35013 | 1904 ft | 129 kts | 265° |
| 2026-04-30 20:23 | 47.25994 | 11.34149 | 1894 ft | 23 kts | 261° |
| 2026-04-30 20:24 | 47.25985 | 11.34067 | 1908 ft | 13 kts | 261° |